Time;durP1;ratioP1;P1;durP2;ratioP2;P2;SDS_P1;SDS_P2;PMS_P1;PMS_P2;Temp;Humidity;BMP_temperature;BMP_pressure;BME280_temperature;BME280_humidity;BME280_pressure;Samples;Min_cycle;Max_cycle;Signal;HPM_P1;HPM_P2
2021/12/25 00:01:03;;;;;;;19.30;10.60;;;;;;;9.69;48.08;100224.22;4994930;28;20046;-76
2021/12/25 00:03:28;;;;;;;21.98;11.82;;;;;;;9.67;48.42;100215.44;4996036;28;20026;-78
2021/12/25 00:05:54;;;;;;;23.88;11.30;;;;;;;9.70;48.30;100233.13;4996404;28;20034;-75
2021/12/25 00:08:21;;;;;;;24.30;11.95;;;;;;;9.70;48.42;100225.91;4995437;28;20034;-76
2021/12/25 00:10:47;;;;;;;18.67;10.55;;;;;;;9.68;48.37;100222.53;4973171;28;20058;-76
2021/12/25 00:13:13;;;;;;;19.52;11.32;;;;;;;9.62;48.44;100223.03;4975868;28;20136;-76
2021/12/25 00:15:39;;;;;;;18.60;10.98;;;;;;;9.53;48.65;100231.88;4957849;28;20074;-76
2021/12/25 00:18:05;;;;;;;18.42;10.93;;;;;;;9.50;49.04;100224.06;4976375;28;20050;-76
2021/12/25 00:20:30;;;;;;;15.60;9.60;;;;;;;9.53;48.63;100217.59;4991759;28;20042;-75
2021/12/25 00:22:56;;;;;;;20.98;11.05;;;;;;;9.49;48.91;100211.63;4995195;28;20018;-76
2021/12/25 00:25:23;;;;;;;18.65;9.80;;;;;;;9.48;48.81;100212.59;4995699;28;20026;-76
2021/12/25 00:28:00;;;;;;;16.17;9.55;;;;;;;9.45;48.88;100207.47;4962639;28;20075;-77
2021/12/25 00:33:00;;;;;;;18.20;9.75;;;;;;;9.34;49.27;100202.16;4992713;28;20041;-77
2021/12/25 00:35:26;;;;;;;13.95;8.48;;;;;;;9.41;49.16;100219.47;4984372;28;20027;-77
2021/12/25 00:37:51;;;;;;;16.67;9.85;;;;;;;9.40;49.19;100211.53;4978792;28;20038;-78
2021/12/25 00:40:18;;;;;;;13.40;9.02;;;;;;;9.41;49.45;100222.16;4994493;28;20094;-76
2021/12/25 00:42:44;;;;;;;15.35;8.07;;;;;;;9.42;48.88;100215.78;4994885;28;20096;-76
2021/12/25 00:45:10;;;;;;;15.85;9.27;;;;;;;9.40;49.39;100214.19;4994435;28;20492;-76
2021/12/25 00:47:35;;;;;;;18.95;8.52;;;;;;;9.41;49.54;100218.59;4994627;28;20030;-76
2021/12/25 00:50:02;;;;;;;14.82;9.32;;;;;;;9.51;48.98;100216.88;4976331;28;20089;-76
2021/12/25 00:52:28;;;;;;;17.30;7.80;;;;;;;9.53;49.15;100223.81;4994639;28;20465;-76
2021/12/25 00:54:53;;;;;;;19.40;10.57;;;;;;;9.51;49.25;100223.06;4984163;28;20045;-76
2021/12/25 00:57:19;;;;;;;16.10;9.77;;;;;;;9.49;48.91;100211.63;4976075;28;20030;-76
2021/12/25 00:59:44;;;;;;;15.40;9.23;;;;;;;9.38;49.19;100198.25;4987926;28;20026;-76
2021/12/25 01:02:10;;;;;;;13.75;8.05;;;;;;;9.51;49.16;100219.56;4990311;28;20415;-76
2021/12/25 01:04:35;;;;;;;12.70;8.48;;;;;;;9.48;49.04;100214.44;4989309;28;20492;-76
2021/12/25 01:07:01;;;;;;;17.33;10.52;;;;;;;9.56;48.95;100222.69;4975114;28;20039;-76
2021/12/25 01:09:27;;;;;;;16.48;9.60;;;;;;;9.50;48.73;100213.31;4974751;28;20023;-76
2021/12/25 01:11:53;;;;;;;16.33;9.13;;;;;;;9.58;49.13;100229.63;4975674;28;20035;-76
2021/12/25 01:14:28;;;;;;;20.88;10.00;;;;;;;9.60;48.59;100230.34;4988648;28;20052;-76
2021/12/25 01:24:59;;;;;;;15.90;9.45;;;;;;;9.60;48.69;100230.34;4980406;28;20076;-76
2021/12/25 01:35:21;;;;;;;15.80;9.45;;;;;;;9.51;48.94;100231.13;4982017;28;20065;-77
2021/12/25 01:48:15;;;;;;;18.35;10.18;;;;;;;9.51;49.03;100238.34;4974968;28;20046;-77
2021/12/25 01:50:41;;;;;;;21.08;9.23;;;;;;;9.47;49.07;100224.31;4974702;28;20409;-78
2021/12/25 01:53:06;;;;;;;14.90;9.25;;;;;;;9.47;49.28;100224.31;4979167;28;20022;-78
2021/12/25 01:55:32;;;;;;;21.73;10.25;;;;;;;9.44;49.25;100219.22;4988387;28;20019;-76
2021/12/25 01:58:00;;;;;;;16.00;10.25;;;;;;;9.44;49.23;100221.91;4992860;28;20394;-76
2021/12/25 02:00:41;;;;;;;16.63;10.60;;;;;;;9.44;49.66;100229.94;4991365;28;20032;-76
2021/12/25 02:03:09;;;;;;;20.00;11.02;;;;;;;9.40;49.62;100228.47;4974490;28;20054;-76
2021/12/25 02:05:35;;;;;;;21.20;11.20;;;;;;;9.40;49.57;100233.84;4956701;28;20493;-76
2021/12/25 02:08:01;;;;;;;14.68;9.10;;;;;;;9.45;49.56;100234.31;4998356;28;20084;-76
2021/12/25 02:10:27;;;;;;;15.60;10.25;;;;;;;9.50;49.39;100234.81;4994962;28;20519;-76
2021/12/25 02:12:52;;;;;;;21.27;11.10;;;;;;;9.48;49.38;100239.44;4977079;28;20054;-76
2021/12/25 02:15:20;;;;;;;20.42;11.30;;;;;;;9.51;49.69;100236.50;4979898;28;20026;-77
2021/12/25 02:20:24;;;;;;;20.73;10.52;;;;;;;9.53;49.44;100245.28;4992605;28;20053;-76
2021/12/25 02:22:54;;;;;;;14.75;8.63;;;;;;;9.54;49.38;100233.53;4997091;28;20030;-77
2021/12/25 02:25:22;;;;;;;24.73;9.07;;;;;;;9.52;49.33;100238.19;4978422;28;20362;-76
2021/12/25 02:27:48;;;;;;;15.25;9.13;;;;;;;9.57;49.47;100240.53;4980063;28;20050;-76
2021/12/25 02:30:14;;;;;;;13.52;8.93;;;;;;;9.56;49.17;100249.53;4997239;28;20114;-76
2021/12/25 02:32:45;;;;;;;12.32;8.52;;;;;;;9.58;49.62;100259.16;4990375;28;20038;-76
2021/12/25 02:35:12;;;;;;;15.57;10.45;;;;;;;9.59;49.36;100252.81;4977663;28;20039;-76
2021/12/25 02:37:40;;;;;;;18.70;10.18;;;;;;;9.54;49.14;100257.69;4993010;28;20034;-76
2021/12/25 02:40:07;;;;;;;15.75;9.98;;;;;;;9.58;49.07;100253.78;4977537;28;20073;-77
2021/12/25 02:42:34;;;;;;;13.15;8.02;;;;;;;9.64;49.10;100258.66;4984821;28;20484;-76
2021/12/25 02:45:00;;;;;;;21.73;12.18;;;;;;;9.63;49.13;100262.31;4996675;28;20050;-77
2021/12/25 02:47:29;;;;;;;20.90;13.75;;;;;;;9.59;49.20;100250.16;4994879;28;20030;-77
2021/12/25 02:49:55;;;;;;;18.33;12.13;;;;;;;9.62;48.98;100263.31;4987981;28;20030;-77
2021/12/25 02:52:20;;;;;;;28.60;15.27;;;;;;;9.64;49.06;100264.03;4977199;28;20374;-77
2021/12/25 02:54:46;;;;;;;22.00;12.32;;;;;;;9.65;48.98;100255.00;4982784;28;20437;-77
2021/12/25 02:57:12;;;;;;;26.60;13.10;;;;;;;9.60;48.90;100254.50;4989460;28;20039;-77
2021/12/25 02:59:37;;;;;;;18.58;11.45;;;;;;;9.62;49.15;100252.56;4983340;28;20420;-77
2021/12/25 03:02:12;;;;;;;18.70;11.00;;;;;;;9.65;49.10;100255.00;4981653;28;20051;-77
2021/12/25 03:04:40;;;;;;;23.55;12.88;;;;;;;9.65;49.00;100260.38;4993772;28;20026;-76
2021/12/25 03:07:07;;;;;;;17.75;10.65;;;;;;;9.58;49.15;100261.84;4996925;28;20034;-77
2021/12/25 03:09:33;;;;;;;21.40;11.23;;;;;;;9.56;49.29;100261.13;4995879;28;20034;-76
2021/12/25 03:11:59;;;;;;;26.67;14.20;;;;;;;9.59;49.38;100255.50;4983698;28;20162;-77
2021/12/25 03:14:36;;;;;;;17.70;10.68;;;;;;;9.64;49.02;100264.03;4977230;28;20484;-77
2021/12/25 03:17:01;;;;;;;19.30;9.70;;;;;;;9.64;48.96;100258.66;4966485;28;20038;-76
2021/12/25 03:19:32;;;;;;;83.68;33.60;;;;;;;9.65;48.74;100255.00;4991090;28;20160;-76
2021/12/25 03:21:59;;;;;;;22.98;10.68;;;;;;;9.72;48.74;100269.59;4996671;28;20105;-76
2021/12/25 03:24:27;;;;;;;21.58;12.48;;;;;;;9.74;48.91;100259.59;4996757;28;20057;-76
2021/12/25 03:26:55;;;;;;;24.83;13.40;;;;;;;9.72;48.83;100263.41;4996074;28;20041;-76
2021/12/25 03:29:22;;;;;;;24.23;14.65;;;;;;;9.72;48.78;100264.22;4962665;28;20030;-76
2021/12/25 03:31:49;;;;;;;24.60;15.32;;;;;;;9.79;48.45;100262.75;4959826;28;20113;-76
2021/12/25 03:34:15;;;;;;;30.73;18.52;;;;;;;9.80;48.35;100264.47;4981890;28;20064;-76
2021/12/25 03:36:40;;;;;;;22.10;12.55;;;;;;;9.82;48.51;100283.97;4992081;28;20054;-76
2021/12/25 03:39:06;;;;;;;20.75;12.07;;;;;;;9.87;48.36;100280.06;4984856;28;20104;-76
2021/12/25 03:41:33;;;;;;;17.85;10.82;;;;;;;9.83;48.31;100287.50;4982123;28;20029;-76
2021/12/25 03:44:00;;;;;;;27.65;11.32;;;;;;;9.79;48.68;100276.16;4996089;28;20397;-76
2021/12/25 03:46:29;;;;;;;26.38;12.15;;;;;;;9.83;48.79;100282.13;4995892;28;20054;-76
2021/12/25 03:59:18;;;;;;;28.30;16.00;;;;;;;9.90;48.04;100277.97;4987281;28;20519;-76
2021/12/25 04:01:51;;;;;;;28.00;16.05;;;;;;;9.83;48.24;100272.25;4983127;28;20413;-76
2021/12/25 04:04:24;;;;;;;23.63;12.10;;;;;;;9.91;48.29;100281.50;4976340;28;20023;-76
2021/12/25 04:06:58;;;;;;;21.05;12.45;;;;;;;9.85;48.29;100277.47;4979701;28;20100;-75
2021/12/25 04:09:29;;;;;;;24.50;15.05;;;;;;;9.84;48.29;100297.28;4982311;28;20069;-76
2021/12/25 04:11:58;;;;;;;31.13;15.25;;;;;;;9.83;48.42;100295.56;4978305;28;20026;-76
2021/12/25 04:14:23;;;;;;;25.80;13.65;;;;;;;9.83;48.31;100300.94;4989378;28;20061;-76
2021/12/25 04:16:49;;;;;;;27.95;15.15;;;;;;;9.81;48.28;100306.44;4976818;28;20027;-76
2021/12/25 04:19:16;;;;;;;24.17;14.52;;;;;;;9.74;48.59;100297.19;4991675;28;20057;-76
2021/12/25 04:21:51;;;;;;;33.70;16.45;;;;;;;9.79;48.31;100300.34;4994947;28;20042;-76
2021/12/25 04:24:17;;;;;;;40.63;17.20;;;;;;;9.77;48.36;100298.78;4995351;28;20029;-77
2021/12/25 04:26:44;;;;;;;32.55;14.52;;;;;;;9.74;48.69;100307.94;4977198;28;20034;-78
2021/12/25 04:32:26;;;;;;;26.33;13.93;;;;;;;9.72;48.65;100314.41;4975352;28;20085;-76
2021/12/25 04:47:54;;;;;;;28.52;13.80;;;;;;;9.66;48.76;100321.13;4983318;28;20471;-76
2021/12/25 05:02:26;;;;;;;24.42;11.20;;;;;;;9.60;49.44;100335.06;4984026;28;20141;-78
2021/12/25 05:04:57;;;;;;;20.40;12.38;;;;;;;9.56;49.39;100324.72;4994304;28;20066;-76
2021/12/25 05:07:23;;;;;;;17.95;10.07;;;;;;;9.56;49.43;100330.09;4994010;28;20109;-77
2021/12/25 05:09:48;;;;;;;18.67;10.23;;;;;;;9.58;49.59;100333.47;4988645;28;20110;-76
2021/12/25 05:12:14;;;;;;;21.67;11.88;;;;;;;9.63;49.24;100342.84;4988384;28;20031;-77
2021/12/25 05:14:39;;;;;;;23.77;11.93;;;;;;;9.68;49.40;100354.09;4975276;28;20062;-77
2021/12/25 05:17:07;;;;;;;17.10;10.57;;;;;;;9.66;49.11;100334.56;4958389;28;20037;-77
2021/12/25 05:19:33;;;;;;;17.35;10.98;;;;;;;9.76;49.15;100348.94;4961510;28;20034;-77
2021/12/25 05:21:58;;;;;;;18.85;10.43;;;;;;;9.73;48.95;100346.50;4995017;28;20041;-76
2021/12/25 05:24:24;;;;;;;15.63;10.00;;;;;;;9.79;49.10;100351.38;4995037;28;20507;-77
2021/12/25 05:26:49;;;;;;;21.58;10.45;;;;;;;9.81;48.84;100352.09;4993950;28;20069;-76
2021/12/25 05:29:23;;;;;;;15.88;9.38;;;;;;;9.84;49.29;100351.00;4993368;28;20049;-76
2021/12/25 05:31:48;;;;;;;17.83;10.05;;;;;;;9.85;49.13;100353.53;4974825;28;20026;-76
2021/12/25 05:34:14;;;;;;;20.33;10.90;;;;;;;9.98;48.76;100357.91;4977820;28;20030;-77
2021/12/25 05:36:39;;;;;;;18.10;10.20;;;;;;;9.95;48.62;100361.69;4980603;28;20031;-76
2021/12/25 05:39:09;;;;;;;19.13;11.45;;;;;;;10.01;48.34;100357.66;4974167;28;20018;-75
2021/12/25 05:41:34;;;;;;;19.15;10.63;;;;;;;10.09;48.59;100374.00;4992441;28;20037;-76
2021/12/25 05:44:00;;;;;;;20.08;10.45;;;;;;;10.15;48.66;100378.91;4991818;28;20031;-75
2021/12/25 05:46:25;;;;;;;21.58;11.00;;;;;;;10.22;48.52;100380.06;4986095;28;20047;-76
2021/12/25 05:48:51;;;;;;;19.73;12.32;;;;;;;10.20;48.14;100369.47;4973602;28;20089;-76
2021/12/25 05:51:18;;;;;;;23.42;11.32;;;;;;;10.22;48.31;100366.63;4987861;28;20080;-76
2021/12/25 05:53:44;;;;;;;15.57;10.25;;;;;;;10.30;47.83;100385.69;4975933;28;20030;-76
2021/12/25 05:56:09;;;;;;;16.52;9.45;;;;;;;10.26;47.82;100368.94;4993200;28;20026;-76
2021/12/25 05:58:35;;;;;;;16.33;10.00;;;;;;;10.36;47.88;100374.41;4991534;28;20037;-76
2021/12/25 06:01:02;;;;;;;16.98;9.80;;;;;;;10.39;47.74;100374.16;4986885;28;20037;-77
2021/12/25 06:03:27;;;;;;;17.27;9.95;;;;;;;10.41;47.55;100358.72;4993013;28;20153;-77
2021/12/25 06:05:52;;;;;;;23.08;9.85;;;;;;;10.48;47.86;100378.75;4993023;28;20065;-77
2021/12/25 06:08:18;;;;;;;17.50;9.70;;;;;;;10.51;47.85;100380.31;4992620;28;20026;-76
2021/12/25 06:10:44;;;;;;;20.08;10.25;;;;;;;10.51;47.32;100378.47;4982933;28;20033;-76
2021/12/25 06:13:15;;;;;;;21.63;11.27;;;;;;;10.57;47.47;100391.41;4972559;28;20571;-77
2021/12/25 06:15:42;;;;;;;19.65;9.80;;;;;;;10.61;47.34;100390.13;4975621;28;20022;-76
2021/12/25 06:18:09;;;;;;;19.85;10.25;;;;;;;10.60;47.51;100393.81;4984906;28;20030;-77
2021/12/25 06:20:35;;;;;;;19.50;12.02;;;;;;;10.59;47.54;100392.13;4989485;28;20040;-76
2021/12/25 06:23:01;;;;;;;15.75;9.88;;;;;;;10.63;47.35;100398.94;4989893;28;20173;-75
2021/12/25 06:25:26;;;;;;;24.52;12.93;;;;;;;10.65;47.18;100394.28;4992521;28;20106;-76
2021/12/25 06:27:52;;;;;;;27.05;13.65;;;;;;;10.67;47.00;100395.00;4992024;28;20515;-76
2021/12/25 06:30:17;;;;;;;24.85;15.13;;;;;;;10.67;47.47;100389.59;4991977;28;20472;-75
2021/12/25 06:32:43;;;;;;;32.60;15.23;;;;;;;10.71;46.95;100391.06;4991319;28;20053;-75
2021/12/25 06:35:09;;;;;;;28.23;14.93;;;;;;;10.76;47.30;100410.34;4977896;28;20129;-75
2021/12/25 06:37:36;;;;;;;25.30;13.48;;;;;;;10.78;46.97;100402.16;4972763;28;20031;-78
2021/12/25 06:40:02;;;;;;;21.90;13.02;;;;;;;10.77;47.04;100397.75;4973542;28;20019;-78
2021/12/25 06:42:28;;;;;;;29.40;16.20;;;;;;;10.75;47.26;100397.91;4990693;28;20033;-76
2021/12/25 06:44:55;;;;;;;23.50;13.15;;;;;;;10.80;47.19;100400.19;4983838;28;20035;-77
2021/12/25 06:47:20;;;;;;;29.58;15.30;;;;;;;10.84;46.81;100407.88;4988495;28;20034;-76
2021/12/25 06:49:46;;;;;;;30.10;16.48;;;;;;;10.90;46.94;100412.72;4990483;28;20408;-76
2021/12/25 06:52:11;;;;;;;27.52;13.85;;;;;;;10.93;46.98;100409.75;4981173;28;20030;-76
2021/12/25 06:54:36;;;;;;;38.13;22.20;;;;;;;11.00;47.22;100406.53;4982422;28;20477;-76
2021/12/25 06:57:03;;;;;;;42.70;20.63;;;;;;;11.02;46.28;100409.94;4987718;28;20416;-77
2021/12/25 06:59:30;;;;;;;45.10;23.17;;;;;;;11.04;47.48;100410.69;4972445;28;20039;-76
2021/12/25 07:01:56;;;;;;;32.90;18.45;;;;;;;11.13;47.51;100408.00;4985073;28;20496;-76
2021/12/25 07:04:21;;;;;;;24.35;13.20;;;;;;;11.19;47.48;100412.88;4976608;28;20070;-77
2021/12/25 07:06:47;;;;;;;31.33;18.40;;;;;;;11.26;46.89;100410.50;4976294;28;20054;-76
2021/12/25 07:09:13;;;;;;;46.90;24.00;;;;;;;11.27;46.82;100404.13;4984769;28;20031;-77
2021/12/25 07:11:38;;;;;;;33.63;18.52;;;;;;;11.33;46.75;100409.84;4980953;28;20040;-77
2021/12/25 07:14:05;;;;;;;22.60;12.85;;;;;;;11.40;46.47;100411.00;4996310;28;20472;-78
2021/12/25 07:16:31;;;;;;;25.98;14.13;;;;;;;11.39;46.60;100414.69;4996624;28;20129;-76
2021/12/25 07:18:57;;;;;;;19.73;10.65;;;;;;;11.43;46.59;100409.88;4994739;28;20031;-78
2021/12/25 07:21:23;;;;;;;22.30;10.82;;;;;;;11.43;46.68;100407.19;4992018;28;20037;-76
2021/12/25 07:23:48;;;;;;;21.15;10.52;;;;;;;11.48;46.58;100415.69;4984253;28;20026;-76
2021/12/25 07:26:17;;;;;;;22.40;9.90;;;;;;;11.55;46.11;100416.00;4995485;28;20058;-76
2021/12/25 07:28:44;;;;;;;14.18;9.20;;;;;;;11.61;46.14;100412.78;4992390;28;20031;-77
2021/12/25 07:31:09;;;;;;;17.15;9.65;;;;;;;11.67;45.75;100418.47;4982930;28;20487;-76
2021/12/25 07:33:40;;;;;;;19.63;10.82;;;;;;;11.66;45.61;100411.38;4984450;28;20027;-75
2021/12/25 07:36:08;;;;;;;16.98;9.80;;;;;;;11.75;45.42;100423.19;4976742;28;20440;-76
2021/12/25 07:38:33;;;;;;;21.23;10.77;;;;;;;11.76;45.46;100415.00;4986165;28;20035;-76
2021/12/25 07:40:59;;;;;;;19.08;10.77;;;;;;;11.84;44.94;100428.63;4994305;28;20026;-76
2021/12/25 07:43:24;;;;;;;21.08;12.00;;;;;;;11.83;45.42;100424.19;4986543;28;20034;-76
2021/12/25 07:45:52;;;;;;;25.08;14.52;;;;;;;11.87;45.61;100425.63;4987578;28;20045;-75
2021/12/25 07:48:20;;;;;;;23.40;12.65;;;;;;;11.93;45.31;100425.09;4977700;28;20035;-75
2021/12/25 07:50:47;;;;;;;25.08;12.85;;;;;;;11.97;45.14;100442.69;4978328;28;20022;-76
2021/12/25 07:53:16;;;;;;;34.67;16.55;;;;;;;12.03;44.98;100441.28;4977166;28;20085;-76
2021/12/25 07:55:42;;;;;;;28.08;13.70;;;;;;;12.03;44.93;100441.28;4981113;28;20544;-77
2021/12/25 07:58:07;;;;;;;35.58;18.23;;;;;;;12.09;45.48;100442.56;4977791;28;20030;-76
2021/12/25 08:00:33;;;;;;;26.50;13.35;;;;;;;12.18;44.87;100455.22;4986828;28;20157;-76
2021/12/25 08:02:58;;;;;;;25.02;13.60;;;;;;;12.25;44.77;100446.44;4996100;28;20456;-79
2021/12/25 08:05:24;;;;;;;34.97;12.55;;;;;;;12.35;44.55;100451.84;4984116;28;20026;-78
2021/12/25 08:07:49;;;;;;;21.38;10.98;;;;;;;12.35;45.04;100458.06;4984895;28;20038;-75
2021/12/25 08:10:20;;;;;;;22.88;11.15;;;;;;;12.31;44.59;100461.19;4989192;28;20026;-76
2021/12/25 08:12:54;;;;;;;33.75;13.77;;;;;;;12.28;44.26;100461.47;4994381;28;20041;-79
2021/12/25 08:15:22;;;;;;;34.42;11.60;;;;;;;12.31;44.44;100466.59;4992060;28;20026;-75
2021/12/25 08:17:49;;;;;;;22.23;11.05;;;;;;;12.30;44.94;100464.88;4994150;28;20030;-76
2021/12/25 08:20:15;;;;;;;28.08;13.00;;;;;;;12.33;44.79;100464.59;4991850;28;20036;-76
2021/12/25 08:22:42;;;;;;;23.70;11.30;;;;;;;12.46;44.73;100468.75;4994094;28;20500;-77
2021/12/25 08:25:09;;;;;;;16.88;9.52;;;;;;;12.51;44.28;100465.63;4993334;28;20026;-76
2021/12/25 08:27:35;;;;;;;28.55;10.68;;;;;;;12.51;44.27;100465.63;4992510;28;20039;-78
2021/12/25 08:30:00;;;;;;;18.75;10.88;;;;;;;12.53;44.25;100467.19;4994446;28;20053;-76
2021/12/25 08:32:26;;;;;;;20.75;11.32;;;;;;;12.51;44.05;100471.00;4994389;28;20060;-77
2021/12/25 08:34:52;;;;;;;34.20;12.10;;;;;;;12.48;44.23;100463.19;4994030;28;20504;-77
2021/12/25 08:37:22;;;;;;;17.30;10.35;;;;;;;12.47;44.66;100456.13;4988978;28;20109;-75
2021/12/25 08:39:48;;;;;;;15.90;10.23;;;;;;;12.44;44.36;100461.78;4993913;28;20018;-75
2021/12/25 08:42:15;;;;;;;17.10;10.60;;;;;;;12.44;44.63;100459.09;4993693;28;20121;-76
2021/12/25 08:45:39;;;;;;;20.80;10.57;;;;;;;12.39;44.80;100458.66;4994264;28;20033;-76
2021/12/25 08:47:32;;;;;;;19.02;10.80;;;;;;;12.36;44.42;100458.94;4968414;28;20217;-76
2021/12/25 08:49:58;;;;;;;25.20;12.30;;;;;;;12.40;44.72;100457.66;4986700;28;20022;-77
2021/12/25 08:52:25;;;;;;;23.27;12.05;;;;;;;12.33;44.84;100456.50;4986930;28;20177;-78
2021/12/25 08:54:51;;;;;;;123.60;55.95;;;;;;;12.39;44.70;100458.66;4985327;28;20027;-76
2021/12/25 08:57:19;;;;;;;96.35;58.90;;;;;;;12.45;44.90;100441.91;4989066;28;20026;-76
2021/12/25 08:59:45;;;;;;;47.58;22.90;;;;;;;12.51;44.71;100439.50;4993267;28;20053;-75
2021/12/25 09:02:14;;;;;;;32.97;21.60;;;;;;;12.59;44.73;100433.41;4992398;28;20038;-78
2021/12/25 09:04:43;;;;;;;47.50;28.83;;;;;;;12.64;44.82;100431.13;4993773;28;20030;-76
2021/12/25 09:07:09;;;;;;;45.17;24.02;;;;;;;12.69;44.65;100436.94;5001547;28;20030;-76
2021/12/25 09:09:35;;;;;;;89.10;45.75;;;;;;;12.76;44.62;100424.56;4993721;28;20105;-76
2021/12/25 09:15:23;;;;;;;90.15;42.92;;;;;;;12.91;44.07;100416.88;4989315;28;20041;-77
2021/12/25 09:17:49;;;;;;;49.92;25.65;;;;;;;12.94;44.46;100417.44;4993631;28;20025;-76
2021/12/25 09:20:18;;;;;;;39.00;21.10;;;;;;;13.01;44.03;100421.28;4990860;28;20022;-76
2021/12/25 09:22:44;;;;;;;34.90;17.65;;;;;;;13.04;44.31;100417.44;4983654;28;20034;-76
2021/12/25 09:25:12;;;;;;;52.72;21.80;;;;;;;13.03;43.78;100411.16;4986897;28;20031;-75
2021/12/25 09:27:37;;;;;;;25.17;15.85;;;;;;;13.21;43.79;100396.97;4990749;28;20080;-75
2021/12/25 09:30:04;;;;;;;26.08;14.13;;;;;;;13.27;43.95;100408.00;4992367;28;20449;-75
2021/12/25 09:32:30;;;;;;;42.10;22.35;;;;;;;13.33;43.72;100395.78;4993626;28;20044;-76
2021/12/25 09:35:00;;;;;;;26.17;15.73;;;;;;;13.40;43.73;100399.56;4987326;28;20477;-76
2021/12/25 09:37:26;;;;;;;25.55;16.80;;;;;;;13.39;43.68;100392.50;4993352;28;20073;-77
2021/12/25 09:39:52;;;;;;;28.40;16.00;;;;;;;13.51;43.66;100402.09;4989455;28;20030;-77
2021/12/25 09:42:19;;;;;;;29.20;17.15;;;;;;;13.57;43.30;100404.22;4993371;28;20037;-76
2021/12/25 09:44:45;;;;;;;33.10;18.33;;;;;;;13.60;43.20;100398.50;4983110;28;20022;-76
2021/12/25 09:47:10;;;;;;;28.38;16.88;;;;;;;13.59;43.08;100386.84;4986658;28;20036;-76
2021/12/25 09:49:36;;;;;;;48.65;22.88;;;;;;;13.68;43.60;100389.63;4986631;28;20158;-76
2021/12/25 09:52:03;;;;;;;34.80;14.77;;;;;;;13.73;43.10;100387.34;4992889;28;20084;-76
2021/12/25 09:54:29;;;;;;;23.50;13.45;;;;;;;13.70;42.73;100377.66;4975162;28;20676;-77
2021/12/25 09:56:57;;;;;;;19.70;12.05;;;;;;;13.72;42.69;100374.81;4987839;28;20105;-76
2021/12/25 09:59:23;;;;;;;27.38;12.73;;;;;;;13.63;43.15;100363.94;4992472;28;20344;-76
2021/12/25 10:01:52;;;;;;;27.15;12.98;;;;;;;13.69;43.26;100370.56;4991079;28;20564;-75
2021/12/25 10:05:01;;;;;;;26.55;11.43;;;;;;;13.70;43.04;100368.72;4992763;28;20022;-78
2021/12/25 10:07:30;;;;;;;19.73;11.48;;;;;;;13.76;43.05;100360.84;4965209;28;20586;-77
2021/12/25 10:10:10;;;;;;;38.80;16.45;;;;;;;13.80;42.69;100364.94;4987709;28;20508;-78
2021/12/25 10:12:46;;;;;;;20.85;12.40;;;;;;;13.93;42.80;100362.75;4983254;28;20156;-77
2021/12/25 10:15:21;;;;;;;28.80;12.82;;;;;;;14.01;42.61;100360.09;4987926;28;20038;-76
2021/12/25 10:17:57;;;;;;;25.85;12.90;;;;;;;14.02;42.50;100348.31;4992092;28;20023;-76
2021/12/25 10:20:29;;;;;;;18.45;11.57;;;;;;;14.04;42.48;100338.16;4981460;28;20442;-77
2021/12/25 10:23:15;;;;;;;18.23;11.43;;;;;;;14.06;42.43;100341.59;4987813;28;20026;-77
2021/12/25 10:25:47;;;;;;;16.52;9.13;;;;;;;14.08;42.34;100338.72;4974874;28;20022;-76
2021/12/25 10:28:16;;;;;;;23.30;10.48;;;;;;;13.95;42.48;100325.56;4988858;28;20056;-75
2021/12/25 10:30:49;;;;;;;17.17;10.02;;;;;;;13.99;42.64;100340.50;4982277;28;20023;-77
2021/12/25 10:33:24;;;;;;;17.58;9.05;;;;;;;14.00;42.59;100331.38;4992747;28;20041;-78
2021/12/25 10:35:50;;;;;;;21.15;10.77;;;;;;;13.96;42.54;100327.28;4992376;28;20404;-77
2021/12/25 10:38:17;;;;;;;27.23;12.77;;;;;;;13.91;42.60;100321.47;4976001;28;20034;-77
2021/12/25 10:40:43;;;;;;;23.90;10.80;;;;;;;13.96;42.87;100308.34;4993477;28;20077;-78
2021/12/25 10:43:20;;;;;;;21.50;11.38;;;;;;;14.08;42.92;100317.94;4996478;28;20030;-76
2021/12/25 10:46:01;;;;;;;21.63;12.75;;;;;;;14.12;42.56;100313.06;4993154;28;20148;-78
2021/12/25 10:48:29;;;;;;;18.30;10.13;;;;;;;14.19;42.80;100315.00;4995543;28;20481;-77
2021/12/25 10:50:56;;;;;;;16.95;9.85;;;;;;;14.22;42.57;100310.28;5000806;28;20022;-78
2021/12/25 10:53:40;;;;;;;15.23;9.48;;;;;;;14.30;42.26;100304.94;4999253;28;20027;-78
2021/12/25 10:56:09;;;;;;;33.10;12.65;;;;;;;14.46;42.04;100300.53;4996477;28;20114;-77
2021/12/25 10:58:36;;;;;;;16.50;10.13;;;;;;;14.54;41.94;100305.16;4996773;28;20030;-78
2021/12/25 11:01:05;;;;;;;29.65;15.52;;;;;;;14.64;41.55;100292.38;4999014;28;20102;-76
2021/12/25 11:03:35;;;;;;;26.88;12.85;;;;;;;14.66;41.50;100290.34;4997870;28;20038;-78
2021/12/25 11:06:16;;;;;;;30.85;12.63;;;;;;;14.77;41.13;100287.38;4998231;28;20034;-77
2021/12/25 11:08:44;;;;;;;18.77;10.05;;;;;;;14.87;41.39;100298.94;4997443;28;20022;-77
2021/12/25 11:11:17;;;;;;;14.75;9.30;;;;;;;14.98;41.00;100287.84;4998059;28;20021;-79
2021/12/25 11:13:52;;;;;;;21.60;11.50;;;;;;;15.11;40.68;100288.25;4997600;28;20176;-78
2021/12/25 11:16:27;;;;;;;19.27;10.43;;;;;;;15.34;40.59;100279.53;4996844;28;20385;-77
2021/12/25 11:19:17;;;;;;;15.55;9.10;;;;;;;15.50;40.00;100285.06;4996110;28;20062;-76
2021/12/25 11:21:46;;;;;;;13.52;8.15;;;;;;;15.75;39.86;100281.38;4979974;28;20042;-75
2021/12/25 11:24:21;;;;;;;18.95;8.52;;;;;;;15.95;39.26;100280.06;4984249;28;20027;-76
2021/12/25 11:26:57;;;;;;;16.80;10.00;;;;;;;16.08;39.01;100275.00;4975750;28;20038;-75
2021/12/25 11:29:28;;;;;;;15.07;9.25;;;;;;;16.12;38.59;100270.06;4981388;28;20026;-82
2021/12/25 11:31:56;;;;;;;13.80;8.40;;;;;;;16.12;38.69;100273.63;5001760;28;20037;-81
2021/12/25 11:34:23;;;;;;;22.55;8.38;;;;;;;16.24;39.05;100274.13;5002283;28;20056;-81
2021/12/25 11:36:51;;;;;;;16.15;8.48;;;;;;;16.29;38.76;100275.34;5005762;28;20047;-77
2021/12/25 11:39:22;;;;;;;35.13;9.55;;;;;;;16.34;38.55;100275.69;4996487;28;20489;-76
2021/12/25 11:41:50;;;;;;;17.25;10.43;;;;;;;16.29;38.41;100275.34;4996290;28;20026;-76
2021/12/25 11:44:42;;;;;;;39.75;19.35;;;;;;;16.26;38.49;100278.41;4996792;28;20031;-77
2021/12/25 11:47:27;;;;;;;26.40;15.77;;;;;;;16.23;38.73;100278.75;4996134;28;20125;-78
2021/12/25 11:49:54;;;;;;;45.58;16.13;;;;;;;16.26;38.62;100283.84;4995643;28;20113;-78
2021/12/25 11:52:24;;;;;;;34.47;14.52;;;;;;;16.32;38.60;100271.44;4996763;28;20507;-76
2021/12/25 11:57:49;;;;;;;19.00;8.25;;;;;;;16.40;38.92;100276.00;4995149;28;20037;-76
2021/12/25 12:00:34;;;;;;;38.80;11.07;;;;;;;16.52;38.46;100267.34;4977581;28;20128;-76
2021/12/25 12:02:59;;;;;;;14.95;8.15;;;;;;;16.55;38.11;100256.16;4995189;28;20088;-75
2021/12/25 12:05:31;;;;;;;18.30;10.60;;;;;;;16.55;38.10;100255.31;4994645;28;20030;-77
2021/12/25 12:08:10;;;;;;;16.17;8.25;;;;;;;16.63;38.26;100266.19;4995368;28;20092;-77
2021/12/25 12:10:48;;;;;;;22.38;8.50;;;;;;;16.75;38.27;100262.09;4996175;28;20057;-77
2021/12/25 12:13:15;;;;;;;28.05;9.20;;;;;;;16.72;37.94;100257.84;4994994;28;20037;-76
2021/12/25 12:15:46;;;;;;;27.83;8.85;;;;;;;16.80;38.16;100265.13;4995299;28;20105;-77
2021/12/25 12:18:24;;;;;;;39.17;19.02;;;;;;;16.81;38.11;100262.25;4994722;28;20085;-76
2021/12/25 12:20:51;;;;;;;16.73;11.25;;;;;;;16.88;38.19;100262.38;4994855;28;20034;-80
2021/12/25 12:24:24;;;;;;;20.45;9.23;;;;;;;16.84;38.10;100258.31;4996689;28;20448;-79
2021/12/25 12:26:51;;;;;;;21.25;8.30;;;;;;;16.85;38.30;100262.72;4986008;28;20424;-80
2021/12/25 12:29:35;;;;;;;29.95;13.82;;;;;;;16.70;38.36;100259.03;4996497;28;20022;-82
2021/12/25 12:32:01;;;;;;;25.63;12.68;;;;;;;16.71;38.77;100266.16;4996577;28;20053;-82
2021/12/25 12:34:29;;;;;;;15.00;8.63;;;;;;;16.67;38.51;100264.78;4979067;28;20058;-80
2021/12/25 12:37:13;;;;;;;20.83;11.00;;;;;;;16.58;38.96;100263.97;4997726;28;20488;-82